MWCB

Gerrard Smith International Airport

Cayman Brac, Cayman Islands
TAF MWCB 161700Z 1618/1718 07010KT 9999 FEW020
Issued Valid From Valid To
Jul-16 @ 17:00 UTC
(3 hours ago)
Jul-16 @ 18:00 UTC
(2 hours ago)
Jul-17 @ 18:00 UTC
(in 22 hours)
Jul-16 @ 18:00 to Jul-17 @ 18:00
TAF MWCB 161700Z 1618/1718 07010KT 9999 FEW020
Wind Visibility Clouds
70° at 10 knots 10,000+ meters
  • Few at 2,000' AGL
TAF MWCB 161700Z 1618/1718 07010KT 9999 FEW020
Issued Jul-16 @ 17:00 UTC
(3 hours ago)
Valid From Jul-16 @ 18:00 UTC
(2 hours ago)
Valid To Jul-17 @ 18:00 UTC
(in 22 hours)
Jul-16 @ 18:00 - Jul-17 @ 18:00
Wind Visibility
70° at 10 knots 10,000+ meters
Clouds
  • Few at 2,000' AGL